^^
Datos históricos de la estación: Murcia-Puente Tocinos
Diario Informe para Mayo 09, 2021 Unidades:  Ingés    Métrico   Ambas
Diario Semanal Mensual Anual
  Máxima: Mínima: Promedio:
Temperatura: 83.3 °F 64.9 °F 74.5 °F
Punto de rocio: 57.6 °F 49.5 °F 53.2 °F
Humedad: 67.9% 35.8% 48%
Velocidad viento: 18.5mph 1.8mph 8.5mph
Racha viento: 35mph - -
Viento- - SSE
Presión: 29.9 in 29.6 in -
Precipitación: 0.01 in    
 
 
Tabla de datos para Mayo 09, 2021
Hora Temperatura Punto de rocio Presión Viento Velocidad viento Racha viento Humedad Intensidad lluvia(por hora) Nubes
00:00 66.9 °F 51.3 °F 29.9 in North 2 mph 3 mph 57% 0 in
01:34 66.6 °F 51.8 °F 29.9 in SSO 3.1 mph 4.6 mph 59% 0 in
01:39 66.6 °F 51.8 °F 29.9 in SSO 3.1 mph 5 mph 59% 0 in
01:44 66.7 °F 52 °F 29.9 in SSO 3.1 mph 5 mph 59% 0 in
01:49 67.1 °F 52.2 °F 29.9 in SSO 3.1 mph 5.2 mph 59% 0 in
01:54 67.3 °F 52.3 °F 29.9 in Sur 3.1 mph 5 mph 58.9% 0 in
01:59 67.3 °F 52 °F 29.9 in Sur 3.1 mph 5.2 mph 58% 0 in
02:04 66.9 °F 51.6 °F 29.9 in Sur 3.1 mph 6.2 mph 57.8% 0 in
02:09 66.7 °F 51.6 °F 29.9 in SSE 3.4 mph 6 mph 58% 0 in
02:14 66.6 °F 50.9 °F 29.9 in SSE 3.6 mph 6.9 mph 57.1% 0 in
02:19 66.2 °F 50.4 °F 29.9 in Sur 3.8 mph 7 mph 56.7% 0 in
02:24 65.8 °F 49.8 °F 29.9 in Sur 4 mph 7 mph 56% 0 in
02:29 65.8 °F 49.6 °F 29.9 in Sur 4.2 mph 7.4 mph 56% 0 in
02:34 65.8 °F 49.8 °F 29.9 in Sur 4.3 mph 7 mph 56% 0 in
02:39 66 °F 49.5 °F 29.9 in SSO 4.3 mph 6.9 mph 55% 0 in
02:44 66.2 °F 49.5 °F 29.9 in SSO 4.3 mph 7.4 mph 55% 0 in
02:49 66.4 °F 49.6 °F 29.8 in SSO 4.3 mph 7 mph 55% 0 in
02:54 66.6 °F 49.8 °F 29.8 in SSO 4.3 mph 6.9 mph 55% 0 in
02:59 66.6 °F 49.8 °F 29.8 in SO 4.1 mph 7 mph 55% 0 in
03:04 66.6 °F 49.8 °F 29.8 in SO 4 mph 7.4 mph 55% 0 in
03:09 66.6 °F 49.8 °F 29.8 in Oeste 4.2 mph 7 mph 55% 0 in
03:14 66.4 °F 50.2 °F 29.8 in Oeste 4.3 mph 6 mph 55.9% 0 in
03:19 66 °F 50 °F 29.8 in OSO 3.5 mph 6.2 mph 56% 0 in
03:24 65.8 °F 49.6 °F 29.8 in OSO 3.1 mph 6.2 mph 56% 0 in
03:29 65.8 °F 49.6 °F 29.8 in OSO 3.9 mph 8.1 mph 56% 0 in
03:34 65.7 °F 49.5 °F 29.8 in Oeste 4.3 mph 8 mph 56% 0 in
03:39 65.7 °F 49.8 °F 29.8 in SO 4.1 mph 7 mph 56.5% 0 in
03:44 65.8 °F 50 °F 29.8 in SO 4 mph 7.4 mph 56.7% 0 in
03:49 66 °F 49.8 °F 29.8 in SO 4.2 mph 7.4 mph 56% 0 in
03:54 66.2 °F 50 °F 29.8 in SSO 4.3 mph 10.4 mph 56% 0 in
03:59 66.4 °F 50.2 °F 29.8 in Sur 4.8 mph 10 mph 56% 0 in
04:04 66.6 °F 50.2 °F 29.8 in SSO 5.2 mph 8 mph 55.7% 0 in
04:09 66.7 °F 50 °F 29.8 in SSE 4.7 mph 10.2 mph 55% 0 in
04:14 66 °F 50.2 °F 29.8 in Sur 4.3 mph 10.7 mph 56.6% 0 in
04:19 65.3 °F 50 °F 29.8 in SSO 5.5 mph 11 mph 58% 0 in
04:24 65.1 °F 50 °F 29.8 in Sur 6.2 mph 9 mph 58% 0 in
04:29 65.3 °F 50 °F 29.8 in Sur 4.8 mph 5.2 mph 58% 0 in
04:34 65.5 °F 50.4 °F 29.8 in Sur 3.6 mph 5.8 mph 58% 0 in
04:39 65.5 °F 50.4 °F 29.8 in SO 3.6 mph 6 mph 57.9% 0 in
04:44 65.7 °F 50 °F 29.8 in SO 3.6 mph 6 mph 57% 0 in
04:49 65.8 °F 50.2 °F 29.8 in Sur 3.3 mph 5 mph 57% 0 in
04:54 65.8 °F 50 °F 29.8 in SSE 3.1 mph 5 mph 56.3% 0 in
04:59 66 °F 49.8 °F 29.8 in OSO 2.6 mph 5.9 mph 56% 0 in
05:04 66 °F 50 °F 29.8 in Oeste 2.4 mph 6 mph 56% 0 in
05:09 66 °F 49.8 °F 29.8 in Oeste 3.2 mph 6 mph 56% 0 in
05:14 66 °F 49.8 °F 29.8 in Oeste 3.6 mph 3.5 mph 56% 0 in
05:19 66 °F 49.8 °F 29.8 in SSO 2.5 mph 4.6 mph 56% 0 in
05:24 66.2 °F 49.6 °F 29.8 in SSO 1.8 mph 5 mph 55.2% 0 in
05:29 66.4 °F 49.8 °F 29.8 in OSO 2.1 mph 5.4 mph 55% 0 in
05:34 66.7 °F 50 °F 29.8 in SSO 2.4 mph 6.2 mph 55% 0 in
05:39 66.9 °F 49.8 °F 29.8 in Sur 3.3 mph 7.4 mph 54.1% 0 in
05:44 66.9 °F 50 °F 29.8 in SSE 4 mph 7.4 mph 54.6% 0 in
05:49 66.7 °F 50.2 °F 29.8 in Sur 4.4 mph 8.7 mph 55.3% 0 in
05:54 66.6 °F 50.4 °F 29.8 in Sur 4.7 mph 9.7 mph 56.2% 0 in
05:59 66 °F 50.4 °F 29.8 in SSE 5.8 mph 10 mph 57.2% 0 in
06:04 65.8 °F 50.4 °F 29.8 in Sur 6.4 mph 10 mph 57.6% 0 in
06:09 66 °F 50.4 °F 29.8 in SSO 6.1 mph 9.2 mph 57% 0 in
06:14 66.2 °F 50.2 °F 29.8 in SO 5.9 mph 9 mph 56.2% 0 in
06:19 66.4 °F 50.2 °F 29.8 in SO 5.5 mph 9 mph 56% 0 in
06:24 66.6 °F 50.4 °F 29.8 in SO 5.2 mph 6.9 mph 56% 0 in
06:29 66.6 °F 50.5 °F 29.8 in OSO 4.2 mph 8.1 mph 56.5% 0 in
06:34 66.4 °F 50.7 °F 29.8 in Oeste 3.6 mph 8 mph 57% 0 in
06:39 66.4 °F 50.7 °F 29.8 in Oeste 3.2 mph 5 mph 57% 0 in
06:44 66 °F 50.4 °F 29.8 in SO 2.9 mph 5 mph 57% 0 in
06:49 66 °F 50.4 °F 29.8 in SO 2.4 mph 5 mph 57% 0 in
06:54 66 °F 50.5 °F 29.8 in OSO 2 mph 3.6 mph 57.4% 0 in
06:59 66 °F 50.7 °F 29.8 in NNO 1.9 mph 4.7 mph 57.8% 0 in
07:04 65.8 °F 51.1 °F 29.8 in NNE 1.8 mph 5 mph 58.9% 0 in
07:09 65.7 °F 51.3 °F 29.8 in Este 2.5 mph 7.4 mph 59.4% 0 in
07:14 65.3 °F 51.1 °F 29.8 in ENE 3.1 mph 7 mph 60.2% 0 in
07:19 64.9 °F 51.1 °F 29.8 in NE 3.1 mph 7 mph 60.9% 0 in
07:24 64.9 °F 50.9 °F 29.8 in Este 3.1 mph 6.2 mph 60.3% 0 in
07:29 64.9 °F 50.7 °F 29.8 in NE 3 mph 6 mph 60% 0 in
07:34 64.9 °F 50.5 °F 29.8 in ENE 2.9 mph 5.8 mph 59.5% 0 in
07:39 65.1 °F 50.5 °F 29.8 in NE 2.9 mph 6 mph 59% 0 in
07:44 65.3 °F 50.7 °F 29.8 in NNO 2.9 mph 5.8 mph 59.3% 0 in
07:49 65.3 °F 51.1 °F 29.8 in ONO 2.6 mph 4.6 mph 59.8% 0 in
07:54 65.3 °F 51.4 °F 29.8 in NO 2.4 mph 5 mph 61% 0 in
07:59 65.1 °F 50.9 °F 29.8 in NNE 2.7 mph 8.5 mph 60.1% 0 in
08:04 65.3 °F 50.9 °F 29.8 in NE 2.9 mph 9 mph 59.8% 0 in
08:09 65.5 °F 50.7 °F 29.8 in NE 3.5 mph 7 mph 59% 0 in
08:14 65.7 °F 50.9 °F 29.8 in Este 4 mph 5.9 mph 59% 0 in
08:19 65.8 °F 51.1 °F 29.8 in SE 3.4 mph 7.4 mph 59% 0 in
08:24 65.8 °F 50.9 °F 29.8 in SE 2.9 mph 7 mph 58.4% 0 in
08:29 66.2 °F 50.9 °F 29.8 in ESE 3.5 mph 8.1 mph 57.8% 0 in
08:34 66.7 °F 50.7 °F 29.8 in ESE 4 mph 8.7 mph 56.6% 0 in
08:39 67.3 °F 50.9 °F 29.8 in Este 5.2 mph 9.2 mph 56% 0 in
08:44 67.8 °F 50.7 °F 29.8 in ENE 5.9 mph 9.2 mph 54.4% 0 in
08:49 68.4 °F 50.2 °F 29.8 in NNE 5.5 mph 9 mph 52.2% 0 in
08:54 68.9 °F 51.4 °F 29.8 in NO 5.2 mph 8.5 mph 53.9% 0 in
08:59 68.2 °F 51.3 °F 29.8 in North 5.2 mph 9.2 mph 54.8% 0 in
09:04 68.4 °F 51.4 °F 29.8 in SO 5.2 mph 9 mph 54.9% 0.01 in
09:09 68.4 °F 52 °F 29.8 in SE 3.6 mph 6.2 mph 55.7% 0.01 in
09:14 68.5 °F 51.8 °F 29.8 in NE 2.4 mph 9.2 mph 55.2% 0.01 in
09:19 68.7 °F 53.4 °F 29.8 in NE 3.4 mph 9 mph 58.3% 0.01 in
09:24 68 °F 54.3 °F 29.8 in NNE 4 mph 6.2 mph 61.9% 0.01 in
09:29 66.9 °F 54.7 °F 29.8 in NE 4 mph 7.4 mph 65% 0.01 in
09:34 66.2 °F 54.9 °F 29.8 in NE 4 mph 7 mph 66.7% 0.01 in
09:39 66.4 °F 55.4 °F 29.8 in Este 4.2 mph 7.4 mph 67.9% 0.01 in
09:44 66.9 °F 55.6 °F 29.8 in Este 4.3 mph 8.1 mph 67% 0.01 in
09:49 67.6 °F 55.9 °F 29.8 in ENE 4.5 mph 8 mph 66.3% 0.01 in
09:54 68.5 °F 55.9 °F 29.8 in NNE 4.7 mph 6.2 mph 64.4% 0.01 in
09:59 69.4 °F 56.3 °F 29.8 in NNE 4.2 mph 6.9 mph 63% 0.01 in
10:04 70.2 °F 56.8 °F 29.8 in NE 4 mph 8.1 mph 62.6% 0.01 in
10:09 70.7 °F 57 °F 29.8 in NNE 4 mph 8 mph 62% 0 in
10:14 71.4 °F 57.2 °F 29.8 in NNE 4 mph 8.1 mph 60.8% 0 in
10:19 72.5 °F 57.4 °F 29.8 in NNE 4.2 mph 8 mph 59.1% 0 in
10:24 73.2 °F 56.7 °F 29.8 in NE 4.3 mph 8.1 mph 56.1% 0 in
10:29 73.8 °F 56.5 °F 29.8 in ENE 4.1 mph 11.8 mph 54.9% 0 in
10:34 74.1 °F 54.9 °F 29.8 in ENE 4 mph 12 mph 51% 0 in
10:39 75.2 °F 54.9 °F 29.8 in Este 4.4 mph 15.2 mph 49.2% 0 in
10:44 76.1 °F 53.4 °F 29.8 in ESE 4.7 mph 15 mph 45.5% 0 in
10:49 76.6 °F 53.6 °F 29.8 in Este 7 mph 15 mph 44.9% 0 in
10:54 76.8 °F 53.4 °F 29.8 in ESE 8.7 mph 14 mph 44.3% 0 in
10:59 76.6 °F 54.1 °F 29.8 in Este 8 mph 16.1 mph 45.7% 0 in
11:04 76.3 °F 54.3 °F 29.8 in ENE 7.6 mph 16 mph 46.6% 0 in
11:09 76.5 °F 54.7 °F 29.8 in ENE 7.2 mph 14 mph 47% 0 in
11:14 76.6 °F 55.4 °F 29.8 in Este 6.9 mph 11.5 mph 47.9% 0 in
11:19 76.8 °F 55.8 °F 29.8 in NE 6.3 mph 12 mph 48.1% 0 in
11:24 77.4 °F 55.8 °F 29.8 in Este 5.9 mph 10.4 mph 47.6% 0 in
11:29 77.5 °F 55 °F 29.8 in ESE 5.2 mph 10.7 mph 46.1% 0 in
11:34 77.5 °F 54.1 °F 29.8 in ESE 4.7 mph 13.8 mph 44.3% 0 in
11:39 77.9 °F 54.9 °F 29.8 in SE 6.3 mph 15.6 mph 45% 0 in
11:44 77.7 °F 55 °F 29.8 in SE 7.4 mph 22.3 mph 45.4% 0 in
11:49 77.5 °F 55.6 °F 29.8 in SE 8.5 mph 22 mph 46.8% 0 in
11:54 77.5 °F 55 °F 29.8 in SE 9.2 mph 24.2 mph 46% 0 in
11:59 77.5 °F 54.1 °F 29.8 in SE 8.8 mph 24 mph 44.3% 0 in
12:04 77.7 °F 54.5 °F 29.8 in SE 8.5 mph 20.7 mph 44.7% 0 in
12:09 77.7 °F 54.5 °F 29.8 in SE 9.6 mph 21 mph 44.6% 0 in
12:14 77.5 °F 54.7 °F 29.8 in SE 10.2 mph 20 mph 45% 0 in
12:19 77.9 °F 54.7 °F 29.8 in SE 11.4 mph 20 mph 44.7% 0 in
12:24 78.3 °F 54.7 °F 29.8 in SE 12.3 mph 26.8 mph 44.2% 0 in
12:29 77.7 °F 54.3 °F 29.8 in SE 13.2 mph 27 mph 44.4% 0 in
12:34 77.5 °F 55 °F 29.7 in SE 14 mph 25 mph 45.8% 0 in
12:39 77.5 °F 55 °F 29.7 in SE 15 mph 24 mph 46% 0 in
12:44 77.9 °F 55 °F 29.7 in SE 15.6 mph 24.6 mph 45.4% 0 in
12:49 77.9 °F 55.6 °F 29.7 in SE 16 mph 25 mph 46% 0 in
12:54 78.1 °F 55.8 °F 29.7 in SE 16.3 mph 24 mph 46.2% 0 in
12:59 78.4 °F 56.1 °F 29.7 in SSE 13.7 mph 22 mph 46.1% 0 in
13:04 78.6 °F 55.9 °F 29.7 in SE 12.3 mph 20.7 mph 45.7% 0 in
13:09 78.6 °F 56.1 °F 29.7 in SSE 12.4 mph 22.3 mph 46% 0 in
13:14 78.6 °F 55.9 °F 29.7 in SSE 12.5 mph 22 mph 45.9% 0 in
13:19 78.6 °F 56.1 °F 29.7 in SSE 12.5 mph 19.6 mph 46.2% 0 in
13:24 79 °F 56.1 °F 29.7 in SE 12.5 mph 20 mph 45.6% 0 in
13:29 79.3 °F 56.7 °F 29.7 in SE 11.7 mph 18.5 mph 45.9% 0 in
13:34 79.3 °F 56.3 °F 29.7 in SE 11.2 mph 19 mph 45.2% 0 in
13:39 79.7 °F 56.3 °F 29.7 in SE 10.9 mph 18 mph 44.9% 0 in
13:44 80.2 °F 56.3 °F 29.7 in SE 10.7 mph 17.3 mph 44% 0 in
13:49 80.2 °F 56.7 °F 29.7 in SE 10.3 mph 21.3 mph 44.6% 0 in
13:54 80.4 °F 56.3 °F 29.7 in SE 10 mph 23.5 mph 43.7% 0 in
13:59 80.1 °F 56.1 °F 29.7 in SSE 12.1 mph 23 mph 44% 0 in
14:04 80.2 °F 56.3 °F 29.7 in SSE 13.5 mph 21.9 mph 44.1% 0 in
14:09 80.2 °F 56.7 °F 29.7 in SSE 13.2 mph 22 mph 44.5% 0 in
14:14 80.2 °F 57 °F 29.7 in SE 13 mph 22 mph 45% 0 in
14:19 80.4 °F 57.2 °F 29.7 in SE 13.3 mph 21.3 mph 45.1% 0 in
14:24 80.4 °F 57.2 °F 29.7 in SSE 13.5 mph 24.6 mph 45.2% 0 in
14:29 80.1 °F 57 °F 29.7 in SSE 14.8 mph 28.8 mph 45.2% 0 in
14:34 80.6 °F 57.4 °F 29.7 in SSE 15.6 mph 29 mph 45.3% 0 in
14:39 80.8 °F 57.4 °F 29.7 in SSE 15.1 mph 31.1 mph 44.8% 0 in
14:44 80.6 °F 57.2 °F 29.7 in SE 14.7 mph 31 mph 44.9% 0 in
14:49 80.6 °F 57 °F 29.7 in SSE 16.3 mph 30.6 mph 44.5% 0 in
14:54 81 °F 56.7 °F 29.7 in SSE 17.5 mph 31.1 mph 43.5% 0 in
14:59 80.4 °F 57 °F 29.7 in SE 17.1 mph 31 mph 44.8% 0 in
15:04 80.4 °F 56.8 °F 29.7 in SSE 16.8 mph 24.2 mph 44.6% 0 in
15:09 80.4 °F 57.2 °F 29.7 in SE 16.8 mph 26.5 mph 45.3% 0 in
15:14 80.6 °F 57.6 °F 29.7 in SE 16.8 mph 26 mph 45.3% 0 in
15:19 81.1 °F 57.2 °F 29.7 in SE 15.2 mph 28.8 mph 44.1% 0 in
15:24 81.7 °F 57.2 °F 29.7 in SSE 14 mph 29 mph 43.4% 0 in
15:29 81.7 °F 56.7 °F 29.7 in SE 13.4 mph 27.9 mph 42.3% 0 in
15:34 81.7 °F 55.9 °F 29.7 in SE 13 mph 28 mph 41.4% 0 in
15:39 81.9 °F 56.5 °F 29.7 in SSE 15 mph 27.6 mph 42% 0 in
15:44 82 °F 55.8 °F 29.7 in SSE 16.3 mph 29.9 mph 40.8% 0 in
15:49 82.2 °F 55.6 °F 29.7 in SSE 16.3 mph 30 mph 40% 0 in
15:54 82.6 °F 55.8 °F 29.7 in SE 16.3 mph 25.6 mph 39.9% 0 in
15:59 82.4 °F 55.4 °F 29.7 in SE 15.3 mph 32.2 mph 39.6% 0 in
16:04 82.4 °F 54.9 °F 29.7 in SSE 14.7 mph 32 mph 39% 0 in
16:09 82 °F 55 °F 29.7 in SSE 16 mph 31.3 mph 39.5% 0 in
16:14 81.9 °F 54.5 °F 29.7 in SSE 17 mph 32.2 mph 39.2% 0 in
16:19 82 °F 54.5 °F 29.7 in SSE 17.6 mph 34.5 mph 39% 0 in
16:24 81.7 °F 54.3 °F 29.7 in SSE 18.1 mph 35 mph 39% 0 in
16:29 81.7 °F 54.3 °F 29.7 in SE 17.9 mph 32 mph 39% 0 in
16:34 82 °F 54.7 °F 29.6 in SSE 17.8 mph 31.3 mph 39% 0 in
16:39 81.9 °F 54.3 °F 29.6 in SE 17 mph 31.1 mph 39% 0 in
16:44 81.9 °F 54.3 °F 29.6 in SE 16.3 mph 31 mph 38.8% 0 in
16:49 82 °F 54 °F 29.6 in SE 16.3 mph 30.1 mph 38% 0 in
16:54 82 °F 54 °F 29.6 in SE 16.3 mph 30.6 mph 38% 0 in
16:59 82.4 °F 54.1 °F 29.6 in SE 17.2 mph 31.1 mph 38% 0 in
17:04 82.6 °F 54.3 °F 29.6 in SE 17.8 mph 30 mph 38% 0 in
17:09 82.8 °F 53.8 °F 29.6 in SE 16.4 mph 27.6 mph 37% 0 in
17:14 82.8 °F 53.8 °F 29.6 in SE 15.6 mph 29.1 mph 37% 0 in
17:19 82.8 °F 53.6 °F 29.6 in SE 16.5 mph 31.3 mph 36.8% 0 in
17:24 82.8 °F 53.2 °F 29.6 in SE 17 mph 31.1 mph 36.2% 0 in
17:29 82.8 °F 53.4 °F 29.6 in SE 17.9 mph 27.6 mph 36.5% 0 in
17:34 82.8 °F 53.2 °F 29.6 in SE 18.5 mph 32.2 mph 36.1% 0 in
17:39 82.9 °F 53.8 °F 29.6 in SE 17.5 mph 32 mph 36.8% 0 in
17:44 82.9 °F 53.2 °F 29.6 in SE 17 mph 29 mph 36% 0 in
17:49 82.9 °F 53.2 °F 29.6 in SE 16.9 mph 30.1 mph 36% 0 in
17:54 83.1 °F 53.2 °F 29.6 in SE 16.8 mph 34.5 mph 35.8% 0 in
17:59 82.9 °F 53.6 °F 29.6 in SSE 16.3 mph 35 mph 36.4% 0 in
18:04 83.1 °F 53.8 °F 29.6 in SE 15.9 mph 26 mph 36.7% 0 in
18:09 83.3 °F 53.8 °F 29.6 in SE 14.1 mph 25 mph 36.3% 0 in
18:14 83.1 °F 54.1 °F 29.6 in SE 13 mph 22 mph 37% 0 in
18:19 83.1 °F 54.1 °F 29.6 in SE 12.6 mph 25.3 mph 37% 0 in
18:24 83.1 °F 54.1 °F 29.6 in SE 12.3 mph 25 mph 37% 0 in
18:29 83.1 °F 54.1 °F 29.6 in SE 12.7 mph 26.8 mph 37% 0 in
18:34 82.9 °F 54.7 °F 29.6 in SE 13 mph 29.1 mph 37.8% 0 in
18:39 82.6 °F 55 °F 29.6 in SE 14.7 mph 32.2 mph 38.8% 0 in
18:44 82.6 °F 55 °F 29.6 in SE 15.9 mph 32 mph 39% 0 in
18:49 82.6 °F 55.4 °F 29.6 in SE 16.6 mph 26.5 mph 39.3% 0 in
18:54 82.4 °F 55.8 °F 29.6 in SE 17 mph 26 mph 40.1% 0 in
18:59 82 °F 56.1 °F 29.6 in SE 15.5 mph 24.6 mph 41% 0 in
19:04 82 °F 56.1 °F 29.6 in SE 14.5 mph 25 mph 41.1% 0 in
19:09 82 °F 55.4 °F 29.6 in SE 13.2 mph 30.1 mph 40% 0 in
19:14 82.2 °F 54.9 °F 29.6 in SE 12.3 mph 30 mph 39% 0 in
19:19 82.2 °F 54.9 °F 29.6 in SE 12.4 mph 26.3 mph 39% 0 in
19:24 82.2 °F 54.7 °F 29.6 in SE 12.5 mph 26.5 mph 38.7% 0 in
19:29 82.2 °F 54.9 °F 29.6 in SE 12.5 mph 26 mph 39% 0 in
19:34 82 °F 54.9 °F 29.6 in SE 12.5 mph 23 mph 39.4% 0 in
19:39 81.7 °F 55 °F 29.6 in SSE 12.1 mph 23 mph 40% 0 in
19:44 81.7 °F 55 °F 29.6 in SSE 11.8 mph 17.3 mph 40% 0 in
19:49 81.7 °F 55.4 °F 29.6 in SSE 10.5 mph 17 mph 40.6% 0 in
19:54 81.3 °F 55.4 °F 29.6 in SSE 9.7 mph 17.3 mph 41% 0 in
19:59 81.3 °F 55.4 °F 29.6 in SSE 9.1 mph 17 mph 41% 0 in
20:04 81.7 °F 55 °F 29.6 in Sur 8.7 mph 13.8 mph 40.2% 0 in
20:09 81.9 °F 55 °F 29.6 in Sur 8.6 mph 15 mph 39.7% 0 in
20:14 81.9 °F 55.2 °F 29.6 in Sur 8.5 mph 16.1 mph 40% 0 in
20:19 81.7 °F 55 °F 29.6 in Sur 8.6 mph 18.4 mph 40% 0 in
20:24 81.7 °F 55 °F 29.6 in Sur 8.7 mph 18 mph 40% 0 in
20:29 81.5 °F 54.9 °F 29.6 in Sur 8.7 mph 16.3 mph 40% 0 in
20:34 81.1 °F 54.9 °F 29.6 in Sur 8.7 mph 16 mph 40.3% 0 in
20:39 81 °F 55 °F 29.6 in SSE 9.3 mph 18.4 mph 41% 0 in
20:44 81 °F 55 °F 29.6 in Sur 9.7 mph 18 mph 41.1% 0 in
20:49 81 °F 55 °F 29.6 in Sur 8.3 mph 14 mph 41% 0 in
20:54 81 °F 55 °F 29.6 in Sur 7.4 mph 15 mph 41% 0 in
20:59 81 °F 55.2 °F 29.6 in SSO 8.1 mph 15 mph 41.4% 0 in
21:04 80.6 °F 55.4 °F 29.6 in SSO 8.7 mph 13 mph 42% 0 in
21:09 80.4 °F 55.4 °F 29.6 in Sur 8.3 mph 13 mph 42.3% 0 in
21:14 80.2 °F 55.8 °F 29.6 in Sur 8.1 mph 15 mph 43.2% 0 in
21:19 80.1 °F 56.1 °F 29.6 in SSO 8.4 mph 15 mph 44% 0 in
21:24 79.7 °F 56.1 °F 29.6 in SSO 8.7 mph 12 mph 44.7% 0 in
21:29 79.3 °F 56.3 °F 29.6 in Sur 7.3 mph 10.7 mph 45% 0 in
21:34 79.3 °F 56.1 °F 29.6 in Sur 6.4 mph 11 mph 45% 0 in
21:39 79.2 °F 55.9 °F 29.6 in Sur 6.4 mph 10.4 mph 45% 0 in
21:44 79.2 °F 55 °F 29.6 in Sur 6.4 mph 10.7 mph 43.6% 0 in
21:49 79.2 °F 54.9 °F 29.6 in Sur 6.4 mph 11 mph 43.3% 0 in
21:54 79.2 °F 54.3 °F 29.6 in SSO 6.4 mph 9.2 mph 42.5% 0 in
21:59 79.2 °F 54.1 °F 29.7 in SSO 5.6 mph 9 mph 42% 0 in
22:04 79.2 °F 53.8 °F 29.7 in SSO 5.2 mph 9.2 mph 41.6% 0 in
22:09 79.2 °F 53.4 °F 29.7 in SSO 5.2 mph 10 mph 41% 0 in
22:14 79.2 °F 53.2 °F 29.7 in SSO 5.2 mph 10.4 mph 40.6% 0 in
22:19 79.2 °F 53.8 °F 29.7 in ONO 5.3 mph 10 mph 41.6% 0 in
22:24 78.6 °F 53.2 °F 29.7 in OSO 5.4 mph 12.3 mph 41.3% 0 in
22:29 78.4 °F 52.7 °F 29.7 in ONO 5.4 mph 13 mph 40.8% 0 in
22:34 78.3 °F 52.5 °F 29.7 in OSO 5.4 mph 13.8 mph 41% 0 in
22:39 77.7 °F 52.2 °F 29.7 in Oeste 5.4 mph 14 mph 41% 0 in
22:44 77.4 °F 51.8 °F 29.7 in Oeste 5.4 mph 19.2 mph 41% 0 in
22:49 76.6 °F 51.3 °F 29.7 in ONO 7.1 mph 26.3 mph 41% 0 in
22:54 76.3 °F 51.3 °F 29.7 in Oeste 8.5 mph 26.5 mph 41.8% 0 in
22:59 75.7 °F 51.3 °F 29.7 in ONO 10.4 mph 26 mph 42.3% 0 in
23:04 75.4 °F 51.3 °F 29.7 in ONO 11.4 mph 21.3 mph 43% 0 in
23:09 75 °F 51.1 °F 29.7 in ONO 12.6 mph 24.2 mph 43% 0 in
23:14 74.8 °F 51.3 °F 29.7 in ONO 13.5 mph 27.9 mph 43.8% 0 in
23:19 74.7 °F 51.3 °F 29.7 in ONO 13.2 mph 23 mph 44% 0 in
23:24 74.5 °F 51.1 °F 29.7 in ONO 13 mph 23 mph 44% 0 in
23:29 74.1 °F 51.4 °F 29.7 in ONO 12.7 mph 21 mph 44.8% 0 in
23:34 74.1 °F 51.4 °F 29.7 in ONO 12.5 mph 18.4 mph 45% 0 in
23:39 73.9 °F 51.3 °F 29.7 in ONO 11.1 mph 17 mph 45% 0 in
23:44 73.9 °F 51.3 °F 29.7 in ONO 10.2 mph 14 mph 45% 0 in
23:49 73.8 °F 51.1 °F 29.7 in ONO 8.6 mph 13 mph 45% 0 in
23:54 73.8 °F 51.1 °F 29.7 in ONO 7.4 mph 12.7 mph 45% 0 in
23:59 73.6 °F 50.9 °F 29.7 in ONO 6.7 mph 14 mph 45% 0 in
Murcia-Puente Tocinos, España
Compliments of Weather Underground - 2.75 mb

La estación de MeteoMurcia.com, publica sus datos en los siguientes proyectos:

Weather Underground PWS IMURCIAP2 Meteoclimatic www.awekas.at

W3Counter
Web Analytics